createdAt,value
2018-12-31T00:02:25.448Z,73.95
2018-12-31T00:04:55.705Z,74.47
2018-12-31T00:07:26.077Z,73.29
2018-12-31T00:10:15.202Z,73.25
2018-12-31T00:12:45.529Z,73.34
2018-12-31T00:15:15.801Z,74.50
2018-12-31T00:17:46.233Z,74.22
2018-12-31T00:20:16.731Z,73.47
2018-12-31T00:22:47.008Z,72.65
2018-12-31T00:25:17.334Z,72.75
2018-12-31T00:28:06.354Z,72.70
2018-12-31T00:30:36.805Z,72.76
2018-12-31T00:33:25.970Z,72.87
2018-12-31T00:35:56.467Z,73.29
2018-12-31T00:45:02.229Z,74.10
2018-12-31T00:47:32.589Z,72.72
2018-12-31T00:50:02.895Z,72.96
2018-12-31T00:52:33.231Z,72.40
2018-12-31T00:55:22.331Z,72.94
2018-12-31T00:57:52.740Z,72.74
2018-12-31T01:00:23.060Z,73.81
2018-12-31T01:02:53.353Z,74.13
2018-12-31T01:05:23.933Z,73.53
2018-12-31T01:08:14.258Z,72.75
2018-12-31T01:19:23.553Z,73.33
2018-12-31T01:21:53.862Z,74.63
2018-12-31T01:24:24.166Z,74.59
2018-12-31T01:27:13.268Z,74.07
2018-12-31T01:30:02.358Z,73.61
2018-12-31T01:32:32.764Z,73.30
2018-12-31T01:35:03.146Z,73.14
2018-12-31T01:37:52.233Z,72.87
2018-12-31T01:46:19.782Z,76.42
2018-12-31T01:51:57.766Z,75.42
2018-12-31T02:03:44.225Z,76.24
2018-12-31T02:06:34.784Z,76.86
2018-12-31T02:09:24.977Z,77.00
2018-12-31T02:12:15.464Z,76.97
2018-12-31T02:15:06.060Z,76.19
2018-12-31T02:20:46.129Z,75.83
2018-12-31T02:23:16.453Z,74.96
2018-12-31T02:25:46.808Z,75.09
2018-12-31T02:30:41.721Z,74.25
2018-12-31T02:33:12.066Z,74.18
2018-12-31T02:38:38.393Z,75.53
2018-12-31T02:41:08.588Z,76.39
2018-12-31T02:43:38.910Z,76.34
2018-12-31T02:46:09.401Z,76.21
2018-12-31T02:48:39.669Z,75.75
2018-12-31T02:51:09.933Z,75.44
2018-12-31T02:59:32.217Z,74.94
2018-12-31T03:05:12.277Z,75.10
2018-12-31T03:07:42.566Z,76.22
2018-12-31T03:10:12.951Z,75.63
2018-12-31T03:21:35.791Z,76.65
2018-12-31T03:24:17.631Z,75.75
2018-12-31T03:26:58.864Z,75.63
2018-12-31T03:29:40.097Z,74.94
2018-12-31T03:32:49.389Z,75.30
2018-12-31T03:44:31.474Z,76.23
2018-12-31T03:47:02.672Z,77.17
2018-12-31T03:49:51.746Z,76.87
2018-12-31T03:52:41.008Z,76.50
2018-12-31T04:25:26.313Z,75.46
2018-12-31T04:28:08.039Z,76.87
2018-12-31T04:33:43.776Z,77.50
2018-12-31T04:39:12.101Z,77.58
2018-12-31T04:41:42.533Z,77.12
2018-12-31T04:44:12.884Z,77.81
2018-12-31T04:46:43.254Z,78.18
2018-12-31T04:49:32.315Z,78.31
2018-12-31T04:52:02.793Z,78.09
2018-12-31T04:54:33.075Z,77.94
2018-12-31T04:57:03.439Z,77.56
2018-12-31T04:59:53.816Z,76.70
2018-12-31T05:02:24.244Z,76.57
2018-12-31T05:04:54.555Z,76.83
2018-12-31T05:07:24.901Z,76.61
2018-12-31T05:12:44.556Z,77.14
2018-12-31T05:15:14.873Z,77.55
2018-12-31T05:20:34.379Z,79.80
2018-12-31T05:28:54.189Z,78.38
2018-12-31T05:45:58.494Z,79.21
2018-12-31T05:48:28.807Z,79.38
2018-12-31T05:54:13.571Z,78.86
2018-12-31T06:08:34.569Z,77.49
2018-12-31T06:11:43.629Z,77.50
2018-12-31T06:19:58.937Z,77.64
2018-12-31T06:22:29.222Z,77.22
2018-12-31T06:24:59.538Z,76.93
2018-12-31T06:27:48.661Z,76.57
2018-12-31T06:30:18.925Z,76.27
2018-12-31T06:32:49.233Z,75.70
2018-12-31T06:35:19.925Z,75.75
2018-12-31T06:37:50.289Z,75.88
2018-12-31T06:40:20.591Z,74.95
2018-12-31T06:42:50.978Z,74.58
2018-12-31T06:45:21.310Z,74.53
2018-12-31T06:47:51.736Z,74.33
2018-12-31T06:50:22.175Z,74.09
2018-12-31T06:52:52.485Z,73.42
2018-12-31T06:55:22.740Z,72.76
2018-12-31T06:57:53.198Z,72.85
2018-12-31T07:00:23.493Z,74.00
2018-12-31T07:02:53.755Z,74.42
2018-12-31T07:05:24.518Z,74.55
2018-12-31T07:07:54.929Z,74.73
2018-12-31T07:10:25.194Z,75.50
2018-12-31T07:12:55.536Z,75.79
2018-12-31T07:15:25.924Z,75.17
2018-12-31T07:17:56.238Z,75.29
2018-12-31T07:20:26.572Z,75.79
2018-12-31T07:22:56.928Z,75.07
2018-12-31T07:25:39.053Z,74.52
2018-12-31T07:30:56.656Z,75.92
2018-12-31T07:33:26.951Z,75.59
2018-12-31T07:35:57.299Z,74.46
2018-12-31T07:38:27.717Z,74.27
2018-12-31T07:41:16.873Z,73.58
2018-12-31T07:43:47.173Z,73.34
2018-12-31T07:46:17.425Z,72.32
2018-12-31T07:48:47.761Z,72.44
2018-12-31T07:51:18.107Z,71.40
2018-12-31T07:54:07.204Z,71.39
2018-12-31T07:59:13.244Z,72.42
2018-12-31T08:01:43.577Z,72.14
2018-12-31T08:07:05.396Z,72.24
2018-12-31T08:15:29.548Z,72.99
2018-12-31T08:17:59.950Z,73.00
2018-12-31T08:20:30.140Z,72.74
2018-12-31T08:23:00.597Z,71.95
2018-12-31T08:25:30.864Z,71.45
2018-12-31T08:28:20.349Z,71.87
2018-12-31T08:39:40.523Z,70.70
2018-12-31T08:42:10.696Z,71.35
2018-12-31T08:44:40.989Z,71.27
2018-12-31T08:47:11.165Z,70.83
2018-12-31T08:49:41.547Z,71.35
2018-12-31T08:52:11.717Z,71.86
2018-12-31T08:54:42.009Z,71.74
2018-12-31T09:00:00.936Z,72.46
2018-12-31T09:02:30.966Z,72.31
2018-12-31T09:05:00.994Z,71.61
2018-12-31T09:07:31.373Z,72.04
2018-12-31T09:10:01.630Z,72.79
2018-12-31T09:12:31.871Z,72.45
2018-12-31T09:15:02.234Z,71.00
2018-12-31T09:17:32.494Z,70.41
2018-12-31T09:20:02.680Z,69.79
2018-12-31T09:22:32.971Z,69.30
2018-12-31T09:25:03.192Z,67.11
2018-12-31T09:27:33.425Z,67.50
2018-12-31T09:49:55.077Z,65.88
2018-12-31T09:52:25.362Z,66.33
2018-12-31T09:54:55.914Z,66.62
2018-12-31T10:00:01.017Z,67.23
2018-12-31T10:02:33.587Z,65.70
2018-12-31T10:05:03.691Z,64.50
2018-12-31T10:13:26.657Z,61.77
2018-12-31T10:16:08.292Z,61.97
2018-12-31T10:18:50.553Z,62.96
2018-12-31T10:21:31.402Z,63.94
2018-12-31T10:29:24.427Z,64.19
2018-12-31T10:34:55.333Z,61.87
2018-12-31T10:40:31.100Z,62.92
2018-12-31T10:43:01.325Z,63.38
2018-12-31T10:45:31.611Z,62.56
2018-12-31T10:51:03.985Z,63.82
2018-12-31T10:53:34.171Z,63.77
2018-12-31T10:56:04.442Z,63.51
2018-12-31T10:58:34.767Z,63.61
2018-12-31T11:01:05.147Z,63.61
2018-12-31T11:03:35.373Z,63.87
2018-12-31T11:06:05.782Z,62.90
2018-12-31T11:08:36.081Z,63.35
2018-12-31T11:11:06.530Z,62.66
2018-12-31T11:13:36.972Z,61.84
2018-12-31T11:16:07.258Z,61.51
2018-12-31T11:21:33.180Z,61.44
2018-12-31T11:29:50.343Z,62.09
2018-12-31T11:32:20.530Z,62.91
2018-12-31T11:34:50.900Z,63.95
2018-12-31T11:37:39.916Z,64.06
2018-12-31T11:40:10.138Z,64.36
2018-12-31T11:42:40.328Z,65.57
2018-12-31T11:45:10.661Z,65.26
2018-12-31T11:47:40.924Z,66.03
2018-12-31T11:50:11.186Z,66.58
2018-12-31T11:55:17.419Z,68.10
2018-12-31T11:57:47.878Z,67.78
2018-12-31T12:00:37.045Z,67.92
2018-12-31T12:03:07.593Z,68.38
2018-12-31T12:05:37.847Z,67.32
2018-12-31T12:08:08.272Z,67.37
2018-12-31T12:10:38.608Z,67.35
2018-12-31T12:13:09.354Z,68.66
2018-12-31T12:15:39.710Z,67.98
2018-12-31T12:18:10.057Z,66.60
2018-12-31T12:20:40.448Z,66.50
2018-12-31T12:23:10.778Z,66.27
2018-12-31T12:25:41.282Z,65.93
2018-12-31T12:28:13.308Z,64.76
2018-12-31T12:33:38.465Z,64.58
2018-12-31T12:39:09.401Z,65.31
2018-12-31T12:41:39.774Z,64.93
2018-12-31T12:44:10.096Z,64.98
2018-12-31T12:49:16.079Z,64.72
2018-12-31T12:58:04.712Z,65.68
2018-12-31T13:00:35.106Z,65.46
2018-12-31T13:03:24.147Z,65.70
2018-12-31T13:05:54.435Z,65.86
2018-12-31T13:08:24.711Z,65.72
2018-12-31T13:10:55.133Z,65.59
2018-12-31T13:18:56.050Z,67.47
2018-12-31T13:21:26.528Z,68.46
2018-12-31T13:23:56.874Z,68.87
2018-12-31T13:26:27.172Z,69.58
2018-12-31T13:28:58.000Z,69.46
2018-12-31T13:31:28.437Z,68.47
2018-12-31T13:33:59.201Z,68.11
2018-12-31T13:45:28.365Z,70.32
2018-12-31T13:47:58.596Z,71.14
2018-12-31T13:50:28.888Z,71.05
2018-12-31T14:04:27.654Z,70.93
2018-12-31T14:06:58.098Z,71.10
2018-12-31T14:09:28.453Z,71.56
2018-12-31T14:11:59.130Z,71.73
2018-12-31T14:14:29.541Z,71.82
2018-12-31T14:17:00.049Z,71.89
2018-12-31T14:19:30.465Z,72.60
2018-12-31T14:22:00.926Z,72.44
2018-12-31T14:24:31.264Z,72.37
2018-12-31T14:27:01.689Z,72.77
2018-12-31T14:29:32.173Z,72.79
2018-12-31T14:32:13.701Z,72.60
2018-12-31T14:34:54.784Z,72.63
2018-12-31T14:37:25.175Z,72.43
2018-12-31T14:42:54.098Z,72.22
2018-12-31T14:45:43.208Z,72.90
2018-12-31T14:48:52.446Z,72.48
2018-12-31T14:51:24.504Z,72.72
2018-12-31T14:54:13.364Z,73.62
2018-12-31T14:56:43.748Z,73.76
2018-12-31T14:59:52.863Z,73.89
2018-12-31T15:02:23.179Z,74.41
2018-12-31T15:04:53.343Z,74.90
2018-12-31T15:07:42.505Z,75.35
2018-12-31T15:10:12.748Z,75.36
2018-12-31T15:21:16.947Z,75.45
2018-12-31T15:23:47.119Z,75.24
2018-12-31T15:26:17.407Z,75.47
2018-12-31T15:28:47.746Z,75.51
2018-12-31T15:31:17.926Z,76.61
2018-12-31T15:33:58.844Z,77.24
2018-12-31T15:42:05.243Z,76.47
2018-12-31T15:44:35.489Z,76.82
2018-12-31T15:47:05.661Z,77.30
2018-12-31T15:49:36.070Z,77.33
2018-12-31T15:52:25.206Z,77.06
2018-12-31T15:55:09.762Z,77.33
2018-12-31T16:00:33.372Z,77.52
2018-12-31T16:03:22.558Z,77.48
2018-12-31T16:08:28.773Z,77.29
2018-12-31T16:13:53.236Z,76.90
2018-12-31T16:19:36.434Z,76.16
2018-12-31T16:22:18.235Z,76.34
2018-12-31T16:27:55.406Z,76.81
2018-12-31T16:30:45.840Z,77.16
2018-12-31T16:33:27.632Z,77.46
2018-12-31T16:35:57.952Z,77.12
2018-12-31T16:38:28.715Z,77.12
2018-12-31T16:41:00.930Z,77.61
2018-12-31T16:43:31.147Z,78.09
2018-12-31T16:49:17.404Z,77.44
2018-12-31T16:51:47.624Z,77.53
2018-12-31T16:54:17.922Z,77.35
2018-12-31T16:56:50.026Z,78.29
2018-12-31T17:01:56.095Z,79.09
2018-12-31T17:04:45.094Z,79.23
2018-12-31T17:07:15.206Z,79.20
2018-12-31T17:09:45.575Z,78.83
2018-12-31T17:12:34.800Z,78.71
2018-12-31T17:15:28.065Z,78.50
2018-12-31T17:21:00.131Z,78.30
2018-12-31T17:23:30.387Z,78.18
2018-12-31T17:26:19.265Z,77.85
2018-12-31T17:28:49.389Z,77.68
2018-12-31T17:31:19.514Z,77.36
2018-12-31T17:33:49.549Z,77.04
2018-12-31T17:36:30.792Z,76.91
2018-12-31T17:39:12.271Z,77.04
2018-12-31T17:44:40.117Z,76.87
2018-12-31T17:47:21.538Z,76.61
2018-12-31T17:50:03.275Z,76.75
2018-12-31T17:55:17.231Z,75.75
2018-12-31T17:57:47.529Z,75.33
2018-12-31T18:00:18.249Z,75.26
2018-12-31T18:03:07.204Z,75.95
2018-12-31T18:05:56.061Z,75.19
2018-12-31T18:14:01.220Z,75.58
2018-12-31T18:19:46.354Z,75.02
2018-12-31T18:31:16.335Z,75.74
2018-12-31T18:39:35.623Z,75.15
2018-12-31T18:42:24.626Z,74.96
2018-12-31T18:44:55.243Z,74.66
2018-12-31T18:47:25.299Z,74.27
2018-12-31T18:52:58.838Z,74.95
2018-12-31T18:55:29.074Z,74.60
2018-12-31T18:57:59.394Z,75.26
2018-12-31T19:00:48.459Z,76.34
2018-12-31T19:09:15.897Z,76.38
2018-12-31T19:12:05.132Z,76.40
2018-12-31T19:14:55.614Z,76.27
2018-12-31T19:17:26.036Z,76.88
2018-12-31T19:20:35.423Z,76.75
2018-12-31T19:23:24.371Z,76.04
2018-12-31T19:26:08.208Z,76.33
2018-12-31T19:28:38.636Z,76.89
2018-12-31T19:31:08.771Z,76.10
2018-12-31T19:33:39.062Z,76.10
2018-12-31T19:36:09.020Z,76.56
2018-12-31T19:38:39.409Z,76.30
2018-12-31T19:41:09.691Z,75.72
2018-12-31T19:43:39.740Z,75.98
2018-12-31T19:46:09.966Z,76.60
2018-12-31T19:48:40.286Z,76.56
2018-12-31T19:51:10.571Z,76.24
2018-12-31T19:53:40.789Z,76.46
2018-12-31T19:59:26.184Z,76.39
2018-12-31T20:04:52.308Z,76.29
2018-12-31T20:10:13.492Z,75.94
2018-12-31T20:16:08.275Z,77.62
2018-12-31T20:21:40.397Z,77.81
2018-12-31T20:24:10.407Z,77.42
2018-12-31T20:26:40.455Z,77.53
2018-12-31T20:29:12.059Z,77.54
2018-12-31T20:32:01.125Z,77.92
2018-12-31T20:34:31.607Z,77.70
2018-12-31T20:37:20.475Z,77.83
2018-12-31T20:39:52.584Z,78.14
2018-12-31T20:42:22.757Z,78.61
2018-12-31T20:47:49.501Z,78.09
2018-12-31T20:50:38.533Z,78.28
2018-12-31T20:53:09.209Z,78.73
2018-12-31T20:55:58.269Z,78.90
2018-12-31T20:58:28.611Z,79.17
2018-12-31T21:00:58.943Z,79.44
2018-12-31T21:03:29.769Z,79.80
2018-12-31T21:06:20.548Z,79.68
2018-12-31T21:08:51.763Z,79.58
2018-12-31T21:11:22.538Z,79.25
2018-12-31T21:13:54.666Z,79.33
2018-12-31T21:19:38.973Z,80.09
2018-12-31T21:22:09.324Z,80.67
2018-12-31T21:24:59.767Z,81.01
2018-12-31T21:27:31.833Z,80.74
2018-12-31T21:30:02.152Z,80.08
2018-12-31T21:33:11.334Z,79.71
2018-12-31T21:35:41.794Z,79.85
2018-12-31T21:38:12.364Z,80.08
2018-12-31T21:40:42.731Z,79.84
2018-12-31T21:43:31.599Z,79.70
2018-12-31T21:51:19.894Z,78.72
2018-12-31T21:54:29.114Z,78.87
2018-12-31T21:57:11.401Z,79.31
2018-12-31T22:00:01.692Z,79.56
2018-12-31T22:02:42.708Z,80.07
2018-12-31T22:05:24.158Z,80.88
2018-12-31T22:08:33.329Z,81.27
2018-12-31T22:16:48.543Z,82.86
2018-12-31T22:19:18.812Z,83.24
2018-12-31T22:21:48.851Z,83.31
2018-12-31T22:24:19.135Z,83.09
2018-12-31T22:26:49.456Z,83.02
2018-12-31T22:29:20.246Z,83.18
2018-12-31T22:31:50.580Z,83.09
2018-12-31T22:34:20.852Z,82.76
2018-12-31T22:36:51.138Z,82.57
2018-12-31T22:39:32.687Z,82.24
2018-12-31T22:42:21.764Z,81.58
2018-12-31T22:44:52.170Z,80.75
2018-12-31T22:47:22.477Z,80.60
2018-12-31T22:49:52.601Z,80.44
2018-12-31T22:52:23.825Z,79.89
2018-12-31T22:54:54.091Z,79.66
2018-12-31T22:57:24.786Z,79.67
2018-12-31T22:59:55.533Z,79.68
2018-12-31T23:02:25.783Z,79.65
2018-12-31T23:04:57.698Z,79.38
2018-12-31T23:07:46.631Z,78.77
2018-12-31T23:10:16.888Z,78.58
2018-12-31T23:12:48.867Z,78.51
2018-12-31T23:15:23.306Z,79.13
2018-12-31T23:17:53.422Z,79.50
2018-12-31T23:20:24.919Z,79.23
2018-12-31T23:22:55.265Z,79.06
2018-12-31T23:25:44.591Z,79.47
2018-12-31T23:31:35.686Z,79.84
2018-12-31T23:34:24.911Z,79.62
2018-12-31T23:36:55.218Z,79.60
2018-12-31T23:45:14.806Z,80.20
2018-12-31T23:47:45.180Z,80.27
2018-12-31T23:50:34.318Z,80.10
2018-12-31T23:53:04.680Z,80.08
2018-12-31T23:55:34.979Z,79.81
2018-12-31T23:58:05.809Z,79.63
